sensor_id;sensor_type;location;lat;lon;timestamp;P1;durP1;ratioP1;P2;durP2;ratioP2
10144;SDS011;5113;41.822;23.564;2023-04-24T00:01:17;11.20;;;9.17;;
10144;SDS011;5113;41.822;23.564;2023-04-24T00:04:25;10.53;;;7.87;;
10144;SDS011;5113;41.822;23.564;2023-04-24T00:07:32;14.00;;;8.43;;
10144;SDS011;5113;41.822;23.564;2023-04-24T00:10:38;10.00;;;7.83;;
10144;SDS011;5113;41.822;23.564;2023-04-24T00:13:44;10.20;;;7.87;;
10144;SDS011;5113;41.822;23.564;2023-04-24T00:16:51;8.53;;;7.73;;
10144;SDS011;5113;41.822;23.564;2023-04-24T00:19:59;10.20;;;8.60;;
10144;SDS011;5113;41.822;23.564;2023-04-24T00:23:06;7.83;;;7.13;;
10144;SDS011;5113;41.822;23.564;2023-04-24T00:26:12;8.53;;;7.73;;
10144;SDS011;5113;41.822;23.564;2023-04-24T00:29:19;8.77;;;7.63;;
10144;SDS011;5113;41.822;23.564;2023-04-24T00:32:26;9.63;;;7.87;;
10144;SDS011;5113;41.822;23.564;2023-04-24T00:35:33;11.53;;;8.97;;
10144;SDS011;5113;41.822;23.564;2023-04-24T00:38:39;10.77;;;7.83;;
10144;SDS011;5113;41.822;23.564;2023-04-24T00:41:45;9.53;;;8.50;;
10144;SDS011;5113;41.822;23.564;2023-04-24T00:44:52;9.17;;;8.20;;
10144;SDS011;5113;41.822;23.564;2023-04-24T00:47:59;12.20;;;8.20;;
10144;SDS011;5113;41.822;23.564;2023-04-24T00:51:07;8.93;;;8.03;;
10144;SDS011;5113;41.822;23.564;2023-04-24T00:54:13;10.90;;;8.83;;
10144;SDS011;5113;41.822;23.564;2023-04-24T00:57:20;9.40;;;8.37;;
10144;SDS011;5113;41.822;23.564;2023-04-24T01:00:28;9.77;;;8.77;;
10144;SDS011;5113;41.822;23.564;2023-04-24T01:03:35;9.20;;;8.23;;
10144;SDS011;5113;41.822;23.564;2023-04-24T01:06:44;9.67;;;8.67;;
10144;SDS011;5113;41.822;23.564;2023-04-24T01:09:51;12.10;;;8.90;;
10144;SDS011;5113;41.822;23.564;2023-04-24T01:12:57;10.97;;;8.57;;
10144;SDS011;5113;41.822;23.564;2023-04-24T01:16:04;10.00;;;8.37;;
10144;SDS011;5113;41.822;23.564;2023-04-24T01:19:11;8.13;;;7.33;;
10144;SDS011;5113;41.822;23.564;2023-04-24T01:22:20;9.07;;;8.17;;
10144;SDS011;5113;41.822;23.564;2023-04-24T01:25:26;10.00;;;8.40;;
10144;SDS011;5113;41.822;23.564;2023-04-24T01:28:34;10.83;;;9.00;;
10144;SDS011;5113;41.822;23.564;2023-04-24T01:31:40;11.13;;;9.03;;
10144;SDS011;5113;41.822;23.564;2023-04-24T01:34:47;10.47;;;9.03;;
10144;SDS011;5113;41.822;23.564;2023-04-24T01:37:56;10.80;;;8.60;;
10144;SDS011;5113;41.822;23.564;2023-04-24T01:41:03;11.00;;;8.93;;
10144;SDS011;5113;41.822;23.564;2023-04-24T01:44:10;9.13;;;8.23;;
10144;SDS011;5113;41.822;23.564;2023-04-24T01:47:16;9.90;;;8.13;;
10144;SDS011;5113;41.822;23.564;2023-04-24T01:50:23;10.13;;;8.37;;
10144;SDS011;5113;41.822;23.564;2023-04-24T01:53:30;9.67;;;8.67;;
10144;SDS011;5113;41.822;23.564;2023-04-24T01:56:37;9.53;;;8.53;;
10144;SDS011;5113;41.822;23.564;2023-04-24T01:59:47;9.47;;;8.57;;
10144;SDS011;5113;41.822;23.564;2023-04-24T02:02:53;14.37;;;8.43;;
10144;SDS011;5113;41.822;23.564;2023-04-24T02:06:00;9.50;;;8.33;;
10144;SDS011;5113;41.822;23.564;2023-04-24T02:09:07;10.33;;;8.50;;
10144;SDS011;5113;41.822;23.564;2023-04-24T02:12:15;11.40;;;9.30;;
10144;SDS011;5113;41.822;23.564;2023-04-24T02:15:22;9.37;;;8.37;;
10144;SDS011;5113;41.822;23.564;2023-04-24T02:18:28;10.23;;;9.23;;
10144;SDS011;5113;41.822;23.564;2023-04-24T02:21:34;9.53;;;8.17;;
10144;SDS011;5113;41.822;23.564;2023-04-24T02:24:42;8.90;;;8.07;;
10144;SDS011;5113;41.822;23.564;2023-04-24T02:27:49;9.07;;;8.13;;
10144;SDS011;5113;41.822;23.564;2023-04-24T02:30:55;9.13;;;8.20;;
10144;SDS011;5113;41.822;23.564;2023-04-24T02:34:01;11.87;;;9.20;;
10144;SDS011;5113;41.822;23.564;2023-04-24T02:37:07;13.87;;;10.00;;
10144;SDS011;5113;41.822;23.564;2023-04-24T02:40:15;13.90;;;10.63;;
10144;SDS011;5113;41.822;23.564;2023-04-24T02:43:22;11.13;;;9.10;;
10144;SDS011;5113;41.822;23.564;2023-04-24T02:46:28;14.87;;;9.07;;
10144;SDS011;5113;41.822;23.564;2023-04-24T02:49:34;9.73;;;8.73;;
10144;SDS011;5113;41.822;23.564;2023-04-24T02:52:41;10.63;;;9.53;;
10144;SDS011;5113;41.822;23.564;2023-04-24T02:55:48;9.93;;;8.80;;
10144;SDS011;5113;41.822;23.564;2023-04-24T02:58:55;9.50;;;8.50;;
10144;SDS011;5113;41.822;23.564;2023-04-24T03:02:01;19.67;;;12.03;;
10144;SDS011;5113;41.822;23.564;2023-04-24T03:05:07;37.13;;;24.43;;
10144;SDS011;5113;41.822;23.564;2023-04-24T03:08:16;25.30;;;19.17;;
10144;SDS011;5113;41.822;23.564;2023-04-24T03:11:24;18.97;;;14.77;;
10144;SDS011;5113;41.822;23.564;2023-04-24T03:14:30;20.03;;;14.33;;
10144;SDS011;5113;41.822;23.564;2023-04-24T03:17:37;16.37;;;13.80;;
10144;SDS011;5113;41.822;23.564;2023-04-24T03:20:45;16.60;;;13.47;;
10144;SDS011;5113;41.822;23.564;2023-04-24T03:23:52;18.13;;;14.87;;
10144;SDS011;5113;41.822;23.564;2023-04-24T03:26:59;13.70;;;12.33;;
10144;SDS011;5113;41.822;23.564;2023-04-24T03:30:06;17.93;;;14.37;;
10144;SDS011;5113;41.822;23.564;2023-04-24T03:33:13;15.07;;;13.47;;
10144;SDS011;5113;41.822;23.564;2023-04-24T03:36:19;19.13;;;15.57;;
10144;SDS011;5113;41.822;23.564;2023-04-24T03:39:25;26.47;;;21.30;;
10144;SDS011;5113;41.822;23.564;2023-04-24T03:42:33;21.43;;;18.03;;
10144;SDS011;5113;41.822;23.564;2023-04-24T03:45:42;16.27;;;13.93;;
10144;SDS011;5113;41.822;23.564;2023-04-24T03:48:48;13.47;;;11.87;;
10144;SDS011;5113;41.822;23.564;2023-04-24T03:51:55;19.03;;;15.40;;
10144;SDS011;5113;41.822;23.564;2023-04-24T03:55:01;26.33;;;20.77;;
10144;SDS011;5113;41.822;23.564;2023-04-24T03:58:08;110.70;;;71.00;;
10144;SDS011;5113;41.822;23.564;2023-04-24T04:01:15;144.77;;;70.23;;
10144;SDS011;5113;41.822;23.564;2023-04-24T04:04:23;119.90;;;59.77;;
10144;SDS011;5113;41.822;23.564;2023-04-24T04:07:29;117.33;;;60.07;;
10144;SDS011;5113;41.822;23.564;2023-04-24T04:10:36;94.17;;;50.30;;
10144;SDS011;5113;41.822;23.564;2023-04-24T04:13:43;72.47;;;42.17;;
10144;SDS011;5113;41.822;23.564;2023-04-24T04:16:50;60.23;;;38.90;;
10144;SDS011;5113;41.822;23.564;2023-04-24T04:19:58;36.87;;;25.80;;
10144;SDS011;5113;41.822;23.564;2023-04-24T04:23:05;26.67;;;19.27;;
10144;SDS011;5113;41.822;23.564;2023-04-24T04:26:11;27.77;;;20.10;;
10144;SDS011;5113;41.822;23.564;2023-04-24T04:29:19;29.57;;;21.70;;
10144;SDS011;5113;41.822;23.564;2023-04-24T04:32:27;29.80;;;20.83;;
10144;SDS011;5113;41.822;23.564;2023-04-24T04:35:33;25.90;;;19.23;;
10144;SDS011;5113;41.822;23.564;2023-04-24T04:38:40;32.00;;;24.23;;
10144;SDS011;5113;41.822;23.564;2023-04-24T04:41:47;29.30;;;20.87;;
10144;SDS011;5113;41.822;23.564;2023-04-24T04:44:56;35.87;;;25.03;;
10144;SDS011;5113;41.822;23.564;2023-04-24T04:48:03;29.40;;;21.60;;
10144;SDS011;5113;41.822;23.564;2023-04-24T04:51:10;28.80;;;20.20;;
10144;SDS011;5113;41.822;23.564;2023-04-24T04:54:17;33.87;;;17.63;;
10144;SDS011;5113;41.822;23.564;2023-04-24T04:57:24;27.87;;;24.87;;
10144;SDS011;5113;41.822;23.564;2023-04-24T05:00:32;46.33;;;30.27;;
10144;SDS011;5113;41.822;23.564;2023-04-24T05:03:40;49.97;;;32.17;;
10144;SDS011;5113;41.822;23.564;2023-04-24T05:06:46;23.90;;;16.03;;
10144;SDS011;5113;41.822;23.564;2023-04-24T05:09:53;21.30;;;15.90;;
10144;SDS011;5113;41.822;23.564;2023-04-24T05:12:59;25.57;;;19.57;;
10144;SDS011;5113;41.822;23.564;2023-04-24T05:16:07;25.13;;;16.63;;
10144;SDS011;5113;41.822;23.564;2023-04-24T05:19:14;14.57;;;11.60;;
10144;SDS011;5113;41.822;23.564;2023-04-24T05:22:21;18.63;;;14.13;;
10144;SDS011;5113;41.822;23.564;2023-04-24T05:25:28;22.20;;;13.87;;
10144;SDS011;5113;41.822;23.564;2023-04-24T05:28:36;21.53;;;14.37;;
10144;SDS011;5113;41.822;23.564;2023-04-24T05:31:44;24.57;;;17.17;;
10144;SDS011;5113;41.822;23.564;2023-04-24T05:34:51;28.70;;;21.40;;
10144;SDS011;5113;41.822;23.564;2023-04-24T05:37:57;31.17;;;22.37;;
10144;SDS011;5113;41.822;23.564;2023-04-24T05:41:04;32.83;;;25.07;;
10144;SDS011;5113;41.822;23.564;2023-04-24T05:44:10;36.23;;;25.80;;
10144;SDS011;5113;41.822;23.564;2023-04-24T05:47:18;24.10;;;15.03;;
10144;SDS011;5113;41.822;23.564;2023-04-24T05:50:26;18.30;;;13.53;;
10144;SDS011;5113;41.822;23.564;2023-04-24T05:53:32;15.33;;;12.50;;
10144;SDS011;5113;41.822;23.564;2023-04-24T05:56:38;20.10;;;13.60;;
10144;SDS011;5113;41.822;23.564;2023-04-24T05:59:46;13.87;;;9.93;;
10144;SDS011;5113;41.822;23.564;2023-04-24T06:02:54;21.83;;;13.23;;
10144;SDS011;5113;41.822;23.564;2023-04-24T06:06:01;14.57;;;11.33;;
10144;SDS011;5113;41.822;23.564;2023-04-24T06:09:07;16.33;;;11.37;;
10144;SDS011;5113;41.822;23.564;2023-04-24T06:12:13;12.97;;;9.07;;
10144;SDS011;5113;41.822;23.564;2023-04-24T06:15:19;9.23;;;8.33;;
10144;SDS011;5113;41.822;23.564;2023-04-24T06:18:27;15.67;;;10.67;;
10144;SDS011;5113;41.822;23.564;2023-04-24T06:21:33;12.20;;;9.93;;
10144;SDS011;5113;41.822;23.564;2023-04-24T06:24:40;11.67;;;9.47;;
10144;SDS011;5113;41.822;23.564;2023-04-24T06:27:46;15.20;;;10.53;;
10144;SDS011;5113;41.822;23.564;2023-04-24T06:30:52;8.60;;;7.10;;
10144;SDS011;5113;41.822;23.564;2023-04-24T06:34:00;8.83;;;7.33;;
10144;SDS011;5113;41.822;23.564;2023-04-24T06:37:07;14.97;;;11.20;;
10144;SDS011;5113;41.822;23.564;2023-04-24T06:40:14;19.13;;;13.80;;
10144;SDS011;5113;41.822;23.564;2023-04-24T06:43:20;22.63;;;15.83;;
10144;SDS011;5113;41.822;23.564;2023-04-24T06:46:26;21.53;;;14.10;;
10144;SDS011;5113;41.822;23.564;2023-04-24T06:49:34;17.97;;;14.03;;
10144;SDS011;5113;41.822;23.564;2023-04-24T06:52:41;12.27;;;8.90;;
10144;SDS011;5113;41.822;23.564;2023-04-24T06:55:47;13.17;;;8.93;;
10144;SDS011;5113;41.822;23.564;2023-04-24T06:58:54;10.10;;;8.33;;
10144;SDS011;5113;41.822;23.564;2023-04-24T07:02:00;10.23;;;8.00;;
10144;SDS011;5113;41.822;23.564;2023-04-24T07:05:09;8.07;;;5.97;;
10144;SDS011;5113;41.822;23.564;2023-04-24T07:08:16;5.80;;;5.30;;
10144;SDS011;5113;41.822;23.564;2023-04-24T07:11:23;7.00;;;6.30;;
10144;SDS011;5113;41.822;23.564;2023-04-24T07:14:33;6.20;;;5.60;;
10144;SDS011;5113;41.822;23.564;2023-04-24T07:17:40;7.93;;;5.87;;
10144;SDS011;5113;41.822;23.564;2023-04-24T07:20:50;6.03;;;5.47;;
10144;SDS011;5113;41.822;23.564;2023-04-24T07:23:57;7.90;;;5.87;;
10144;SDS011;5113;41.822;23.564;2023-04-24T07:27:04;5.77;;;5.17;;
10144;SDS011;5113;41.822;23.564;2023-04-24T07:30:11;4.87;;;4.47;;
10144;SDS011;5113;41.822;23.564;2023-04-24T07:33:17;10.43;;;4.67;;
10144;SDS011;5113;41.822;23.564;2023-04-24T07:36:25;5.67;;;3.90;;
10144;SDS011;5113;41.822;23.564;2023-04-24T07:39:32;8.00;;;6.03;;
10144;SDS011;5113;41.822;23.564;2023-04-24T07:42:39;5.63;;;5.13;;
10144;SDS011;5113;41.822;23.564;2023-04-24T07:45:46;5.20;;;4.70;;
10144;SDS011;5113;41.822;23.564;2023-04-24T07:48:53;5.70;;;5.13;;
10144;SDS011;5113;41.822;23.564;2023-04-24T07:52:17;14.77;;;9.63;;
10144;SDS011;5113;41.822;23.564;2023-04-24T07:55:24;6.33;;;5.10;;
10144;SDS011;5113;41.822;23.564;2023-04-24T07:58:32;7.53;;;5.83;;
10144;SDS011;5113;41.822;23.564;2023-04-24T08:01:38;5.63;;;5.03;;
10144;SDS011;5113;41.822;23.564;2023-04-24T08:04:44;8.13;;;6.67;;
10144;SDS011;5113;41.822;23.564;2023-04-24T08:07:52;5.43;;;4.93;;
10144;SDS011;5113;41.822;23.564;2023-04-24T08:10:58;7.97;;;6.03;;
10144;SDS011;5113;41.822;23.564;2023-04-24T08:14:04;5.17;;;4.70;;
10144;SDS011;5113;41.822;23.564;2023-04-24T08:17:10;5.13;;;4.73;;
10144;SDS011;5113;41.822;23.564;2023-04-24T08:20:17;5.53;;;5.00;;
10144;SDS011;5113;41.822;23.564;2023-04-24T08:23:25;4.47;;;4.07;;
10144;SDS011;5113;41.822;23.564;2023-04-24T08:26:32;7.10;;;5.00;;
10144;SDS011;5113;41.822;23.564;2023-04-24T08:29:38;6.27;;;5.67;;
10144;SDS011;5113;41.822;23.564;2023-04-24T08:32:45;5.73;;;4.80;;
10144;SDS011;5113;41.822;23.564;2023-04-24T08:35:52;4.80;;;4.40;;
10144;SDS011;5113;41.822;23.564;2023-04-24T08:39:00;3.73;;;3.53;;
10144;SDS011;5113;41.822;23.564;2023-04-24T08:42:07;4.03;;;3.73;;
10144;SDS011;5113;41.822;23.564;2023-04-24T08:45:14;6.47;;;4.40;;
10144;SDS011;5113;41.822;23.564;2023-04-24T08:48:21;4.23;;;3.83;;
10144;SDS011;5113;41.822;23.564;2023-04-24T08:51:34;4.20;;;3.50;;
10144;SDS011;5113;41.822;23.564;2023-04-24T08:54:44;5.00;;;4.63;;
10144;SDS011;5113;41.822;23.564;2023-04-24T08:57:52;4.93;;;4.10;;
10144;SDS011;5113;41.822;23.564;2023-04-24T09:00:59;3.87;;;3.67;;
10144;SDS011;5113;41.822;23.564;2023-04-24T09:04:07;4.33;;;3.93;;
10144;SDS011;5113;41.822;23.564;2023-04-24T09:07:15;3.50;;;3.30;;
10144;SDS011;5113;41.822;23.564;2023-04-24T09:10:25;4.33;;;4.03;;
10144;SDS011;5113;41.822;23.564;2023-04-24T09:13:32;6.07;;;4.43;;
10144;SDS011;5113;41.822;23.564;2023-04-24T09:16:39;7.27;;;5.00;;
10144;SDS011;5113;41.822;23.564;2023-04-24T09:19:46;4.93;;;4.53;;
10144;SDS011;5113;41.822;23.564;2023-04-24T09:22:53;6.37;;;5.17;;
10144;SDS011;5113;41.822;23.564;2023-04-24T09:26:02;7.93;;;4.90;;
10144;SDS011;5113;41.822;23.564;2023-04-24T09:29:14;4.70;;;4.30;;
10144;SDS011;5113;41.822;23.564;2023-04-24T09:32:21;4.30;;;4.00;;
10144;SDS011;5113;41.822;23.564;2023-04-24T09:35:30;4.80;;;4.33;;
10144;SDS011;5113;41.822;23.564;2023-04-24T09:38:38;5.57;;;4.17;;
10144;SDS011;5113;41.822;23.564;2023-04-24T09:41:46;4.60;;;4.20;;
10144;SDS011;5113;41.822;23.564;2023-04-24T09:44:54;4.40;;;4.00;;
10144;SDS011;5113;41.822;23.564;2023-04-24T09:48:15;4.17;;;3.87;;
10144;SDS011;5113;41.822;23.564;2023-04-24T09:51:24;3.87;;;3.57;;
10144;SDS011;5113;41.822;23.564;2023-04-24T09:54:39;5.77;;;4.43;;
10144;SDS011;5113;41.822;23.564;2023-04-24T09:57:51;6.10;;;5.50;;
10144;SDS011;5113;41.822;23.564;2023-04-24T10:00:59;4.80;;;4.40;;
10144;SDS011;5113;41.822;23.564;2023-04-24T10:04:05;4.23;;;3.87;;
10144;SDS011;5113;41.822;23.564;2023-04-24T10:07:12;4.83;;;4.43;;
10144;SDS011;5113;41.822;23.564;2023-04-24T10:10:21;3.90;;;3.60;;
10144;SDS011;5113;41.822;23.564;2023-04-24T10:13:30;4.17;;;3.77;;
10144;SDS011;5113;41.822;23.564;2023-04-24T10:16:36;3.97;;;3.67;;
10144;SDS011;5113;41.822;23.564;2023-04-24T10:19:43;3.67;;;3.37;;
10144;SDS011;5113;41.822;23.564;2023-04-24T10:22:52;5.33;;;4.30;;
10144;SDS011;5113;41.822;23.564;2023-04-24T10:25:59;3.97;;;3.67;;
10144;SDS011;5113;41.822;23.564;2023-04-24T10:29:07;5.23;;;3.37;;
10144;SDS011;5113;41.822;23.564;2023-04-24T10:32:17;5.63;;;4.43;;
10144;SDS011;5113;41.822;23.564;2023-04-24T10:35:23;4.57;;;4.17;;
10144;SDS011;5113;41.822;23.564;2023-04-24T10:51:59;4.10;;;3.80;;
10144;SDS011;5113;41.822;23.564;2023-04-24T10:55:07;4.10;;;3.80;;
10144;SDS011;5113;41.822;23.564;2023-04-24T10:58:14;4.90;;;4.40;;
10144;SDS011;5113;41.822;23.564;2023-04-24T11:01:24;4.47;;;3.60;;
10144;SDS011;5113;41.822;23.564;2023-04-24T11:04:32;4.83;;;3.47;;
10144;SDS011;5113;41.822;23.564;2023-04-24T11:11:18;3.83;;;3.53;;
10144;SDS011;5113;41.822;23.564;2023-04-24T11:14:26;4.60;;;4.20;;
10144;SDS011;5113;41.822;23.564;2023-04-24T11:17:33;4.07;;;3.67;;
10144;SDS011;5113;41.822;23.564;2023-04-24T11:20:42;4.03;;;3.73;;
10144;SDS011;5113;41.822;23.564;2023-04-24T11:23:51;3.27;;;3.07;;
10144;SDS011;5113;41.822;23.564;2023-04-24T11:26:58;5.72;;;3.85;;
10144;SDS011;5113;41.822;23.564;2023-04-24T11:30:06;4.30;;;3.90;;
10144;SDS011;5113;41.822;23.564;2023-04-24T11:33:13;4.45;;;4.03;;
10144;SDS011;5113;41.822;23.564;2023-04-24T11:36:25;5.23;;;3.53;;
10144;SDS011;5113;41.822;23.564;2023-04-24T11:39:37;4.00;;;3.70;;
10144;SDS011;5113;41.822;23.564;2023-04-24T11:42:43;3.40;;;3.20;;
10144;SDS011;5113;41.822;23.564;2023-04-24T11:45:50;3.50;;;3.27;;
10144;SDS011;5113;41.822;23.564;2023-04-24T11:48:57;4.10;;;3.80;;
10144;SDS011;5113;41.822;23.564;2023-04-24T11:52:04;4.00;;;3.70;;
10144;SDS011;5113;41.822;23.564;2023-04-24T11:55:23;3.90;;;3.60;;
10144;SDS011;5113;41.822;23.564;2023-04-24T11:58:34;4.63;;;3.93;;
10144;SDS011;5113;41.822;23.564;2023-04-24T12:01:44;4.73;;;3.20;;
10144;SDS011;5113;41.822;23.564;2023-04-24T12:04:50;4.83;;;3.73;;
10144;SDS011;5113;41.822;23.564;2023-04-24T12:07:57;3.90;;;3.60;;
10144;SDS011;5113;41.822;23.564;2023-04-24T12:11:06;3.30;;;3.10;;
10144;SDS011;5113;41.822;23.564;2023-04-24T12:14:13;3.67;;;3.37;;
10144;SDS011;5113;41.822;23.564;2023-04-24T12:17:23;3.80;;;3.50;;
10144;SDS011;5113;41.822;23.564;2023-04-24T12:20:32;3.80;;;3.50;;
10144;SDS011;5113;41.822;23.564;2023-04-24T12:23:39;3.83;;;3.47;;
10144;SDS011;5113;41.822;23.564;2023-04-24T12:26:50;3.57;;;3.30;;
10144;SDS011;5113;41.822;23.564;2023-04-24T12:29:58;3.57;;;3.30;;
10144;SDS011;5113;41.822;23.564;2023-04-24T12:33:05;4.07;;;3.67;;
10144;SDS011;5113;41.822;23.564;2023-04-24T12:36:11;3.43;;;3.23;;
10144;SDS011;5113;41.822;23.564;2023-04-24T12:39:18;3.43;;;3.23;;
10144;SDS011;5113;41.822;23.564;2023-04-24T12:42:30;3.83;;;3.57;;
10144;SDS011;5113;41.822;23.564;2023-04-24T12:45:36;3.40;;;3.20;;
10144;SDS011;5113;41.822;23.564;2023-04-24T12:48:42;3.30;;;3.00;;
10144;SDS011;5113;41.822;23.564;2023-04-24T12:51:49;3.33;;;3.07;;
10144;SDS011;5113;41.822;23.564;2023-04-24T12:54:55;3.63;;;3.43;;
10144;SDS011;5113;41.822;23.564;2023-04-24T12:58:05;4.27;;;3.90;;
10144;SDS011;5113;41.822;23.564;2023-04-24T13:01:11;4.43;;;4.03;;
10144;SDS011;5113;41.822;23.564;2023-04-24T13:04:18;3.43;;;3.23;;
10144;SDS011;5113;41.822;23.564;2023-04-24T13:07:24;3.70;;;3.40;;
10144;SDS011;5113;41.822;23.564;2023-04-24T13:10:31;3.53;;;3.23;;
10144;SDS011;5113;41.822;23.564;2023-04-24T13:13:39;3.70;;;3.40;;
10144;SDS011;5113;41.822;23.564;2023-04-24T13:16:46;4.17;;;3.70;;
10144;SDS011;5113;41.822;23.564;2023-04-24T13:19:54;4.17;;;3.47;;
10144;SDS011;5113;41.822;23.564;2023-04-24T13:23:00;3.67;;;3.23;;
10144;SDS011;5113;41.822;23.564;2023-04-24T13:26:07;4.10;;;3.77;;
10144;SDS011;5113;41.822;23.564;2023-04-24T13:29:15;3.73;;;3.23;;
10144;SDS011;5113;41.822;23.564;2023-04-24T13:32:21;3.53;;;3.30;;
10144;SDS011;5113;41.822;23.564;2023-04-24T13:35:31;3.37;;;3.07;;
10144;SDS011;5113;41.822;23.564;2023-04-24T13:38:38;3.80;;;3.50;;
10144;SDS011;5113;41.822;23.564;2023-04-24T13:41:43;3.50;;;3.30;;
10144;SDS011;5113;41.822;23.564;2023-04-24T13:44:53;3.17;;;2.97;;
10144;SDS011;5113;41.822;23.564;2023-04-24T13:48:00;4.10;;;3.70;;
10144;SDS011;5113;41.822;23.564;2023-04-24T13:51:07;3.27;;;3.10;;
10144;SDS011;5113;41.822;23.564;2023-04-24T13:54:14;3.87;;;3.67;;
10144;SDS011;5113;41.822;23.564;2023-04-24T13:57:20;3.30;;;3.10;;
10144;SDS011;5113;41.822;23.564;2023-04-24T14:00:28;3.90;;;3.60;;
10144;SDS011;5113;41.822;23.564;2023-04-24T14:03:34;3.67;;;3.47;;
10144;SDS011;5113;41.822;23.564;2023-04-24T14:06:43;3.77;;;3.40;;
10144;SDS011;5113;41.822;23.564;2023-04-24T14:09:50;3.70;;;3.50;;
10144;SDS011;5113;41.822;23.564;2023-04-24T14:12:59;4.47;;;4.10;;
10144;SDS011;5113;41.822;23.564;2023-04-24T14:16:06;3.80;;;3.60;;
10144;SDS011;5113;41.822;23.564;2023-04-24T14:19:13;5.13;;;4.73;;
10144;SDS011;5113;41.822;23.564;2023-04-24T14:22:19;9.77;;;8.80;;
10144;SDS011;5113;41.822;23.564;2023-04-24T14:25:26;7.17;;;6.57;;
10144;SDS011;5113;41.822;23.564;2023-04-24T14:28:32;7.67;;;4.53;;
10144;SDS011;5113;41.822;23.564;2023-04-24T14:31:40;4.80;;;3.60;;
10144;SDS011;5113;41.822;23.564;2023-04-24T14:34:47;3.83;;;3.63;;
10144;SDS011;5113;41.822;23.564;2023-04-24T14:37:54;4.30;;;3.90;;
10144;SDS011;5113;41.822;23.564;2023-04-24T14:41:00;5.67;;;3.83;;
10144;SDS011;5113;41.822;23.564;2023-04-24T14:44:17;4.63;;;4.20;;
10144;SDS011;5113;41.822;23.564;2023-04-24T14:47:25;6.27;;;4.03;;
10144;SDS011;5113;41.822;23.564;2023-04-24T14:50:31;4.10;;;3.73;;
10144;SDS011;5113;41.822;23.564;2023-04-24T14:53:38;4.10;;;3.73;;
10144;SDS011;5113;41.822;23.564;2023-04-24T14:56:45;6.93;;;5.20;;
10144;SDS011;5113;41.822;23.564;2023-04-24T14:59:51;5.53;;;3.97;;
10144;SDS011;5113;41.822;23.564;2023-04-24T15:02:59;6.17;;;4.90;;
10144;SDS011;5113;41.822;23.564;2023-04-24T15:06:07;4.07;;;3.77;;
10144;SDS011;5113;41.822;23.564;2023-04-24T15:09:13;4.30;;;3.47;;
10144;SDS011;5113;41.822;23.564;2023-04-24T15:12:19;4.93;;;4.03;;
10144;SDS011;5113;41.822;23.564;2023-04-24T15:15:26;4.20;;;3.90;;
10144;SDS011;5113;41.822;23.564;2023-04-24T15:18:34;4.60;;;4.07;;
10144;SDS011;5113;41.822;23.564;2023-04-24T15:21:40;4.70;;;4.40;;
10144;SDS011;5113;41.822;23.564;2023-04-24T15:24:49;5.13;;;3.87;;
10144;SDS011;5113;41.822;23.564;2023-04-24T15:27:55;5.07;;;4.60;;
10144;SDS011;5113;41.822;23.564;2023-04-24T15:31:03;4.57;;;3.93;;
10144;SDS011;5113;41.822;23.564;2023-04-24T15:34:10;4.87;;;4.20;;
10144;SDS011;5113;41.822;23.564;2023-04-24T15:37:16;5.50;;;5.10;;
10144;SDS011;5113;41.822;23.564;2023-04-24T15:40:23;6.70;;;5.20;;
10144;SDS011;5113;41.822;23.564;2023-04-24T15:43:30;3.73;;;3.43;;
10144;SDS011;5113;41.822;23.564;2023-04-24T15:46:38;4.80;;;3.63;;
10144;SDS011;5113;41.822;23.564;2023-04-24T15:49:46;4.10;;;3.80;;
10144;SDS011;5113;41.822;23.564;2023-04-24T15:52:53;4.67;;;4.27;;
10144;SDS011;5113;41.822;23.564;2023-04-24T15:55:59;4.70;;;4.30;;
10144;SDS011;5113;41.822;23.564;2023-04-24T15:59:07;5.50;;;4.37;;
10144;SDS011;5113;41.822;23.564;2023-04-24T16:02:13;5.00;;;4.60;;
10144;SDS011;5113;41.822;23.564;2023-04-24T16:05:24;5.23;;;4.20;;
10144;SDS011;5113;41.822;23.564;2023-04-24T16:08:31;4.20;;;3.90;;
10144;SDS011;5113;41.822;23.564;2023-04-24T16:11:37;4.47;;;4.03;;
10144;SDS011;5113;41.822;23.564;2023-04-24T16:14:44;6.80;;;5.93;;
10144;SDS011;5113;41.822;23.564;2023-04-24T16:17:50;6.00;;;5.50;;
10144;SDS011;5113;41.822;23.564;2023-04-24T16:20:59;4.67;;;4.27;;
10144;SDS011;5113;41.822;23.564;2023-04-24T16:24:06;3.93;;;3.63;;
10144;SDS011;5113;41.822;23.564;2023-04-24T16:27:13;5.93;;;4.50;;
10144;SDS011;5113;41.822;23.564;2023-04-24T16:30:20;4.63;;;4.30;;
10144;SDS011;5113;41.822;23.564;2023-04-24T16:33:27;7.17;;;6.43;;
10144;SDS011;5113;41.822;23.564;2023-04-24T16:36:36;7.30;;;6.60;;
10144;SDS011;5113;41.822;23.564;2023-04-24T16:39:44;7.20;;;5.93;;
10144;SDS011;5113;41.822;23.564;2023-04-24T16:42:51;6.17;;;5.57;;
10144;SDS011;5113;41.822;23.564;2023-04-24T16:45:58;21.67;;;10.87;;
10144;SDS011;5113;41.822;23.564;2023-04-24T16:49:05;11.37;;;7.47;;
10144;SDS011;5113;41.822;23.564;2023-04-24T16:52:14;11.33;;;8.70;;
10144;SDS011;5113;41.822;23.564;2023-04-24T16:55:21;25.23;;;11.33;;
10144;SDS011;5113;41.822;23.564;2023-04-24T16:58:29;13.60;;;9.20;;
10144;SDS011;5113;41.822;23.564;2023-04-24T17:01:36;9.87;;;8.07;;
10144;SDS011;5113;41.822;23.564;2023-04-24T17:04:44;6.60;;;5.70;;
10144;SDS011;5113;41.822;23.564;2023-04-24T17:07:53;6.37;;;5.77;;
10144;SDS011;5113;41.822;23.564;2023-04-24T17:11:00;12.07;;;8.67;;
10144;SDS011;5113;41.822;23.564;2023-04-24T17:14:07;9.30;;;7.47;;
10144;SDS011;5113;41.822;23.564;2023-04-24T17:17:14;15.83;;;9.43;;
10144;SDS011;5113;41.822;23.564;2023-04-24T17:20:23;20.37;;;12.90;;
10144;SDS011;5113;41.822;23.564;2023-04-24T17:23:37;12.93;;;5.60;;
10144;SDS011;5113;41.822;23.564;2023-04-24T17:26:56;8.90;;;6.97;;
10144;SDS011;5113;41.822;23.564;2023-04-24T17:30:12;12.10;;;6.93;;
10144;SDS011;5113;41.822;23.564;2023-04-24T17:33:37;9.40;;;7.87;;
10144;SDS011;5113;41.822;23.564;2023-04-24T17:36:45;10.30;;;9.20;;
10144;SDS011;5113;41.822;23.564;2023-04-24T17:39:53;12.70;;;11.40;;
10144;SDS011;5113;41.822;23.564;2023-04-24T17:43:00;12.13;;;8.80;;
10144;SDS011;5113;41.822;23.564;2023-04-24T17:46:06;11.90;;;8.20;;
10144;SDS011;5113;41.822;23.564;2023-04-24T17:49:13;11.50;;;9.47;;
10144;SDS011;5113;41.822;23.564;2023-04-24T17:52:19;18.67;;;11.87;;
10144;SDS011;5113;41.822;23.564;2023-04-24T17:55:27;15.83;;;11.90;;
10144;SDS011;5113;41.822;23.564;2023-04-24T17:58:34;32.03;;;21.37;;
10144;SDS011;5113;41.822;23.564;2023-04-24T18:01:41;33.17;;;19.83;;
10144;SDS011;5113;41.822;23.564;2023-04-24T18:04:47;29.00;;;19.40;;
10144;SDS011;5113;41.822;23.564;2023-04-24T18:07:57;31.60;;;18.83;;
10144;SDS011;5113;41.822;23.564;2023-04-24T18:11:05;28.83;;;20.17;;
10144;SDS011;5113;41.822;23.564;2023-04-24T18:14:12;38.83;;;25.13;;
10144;SDS011;5113;41.822;23.564;2023-04-24T18:17:18;26.80;;;17.30;;
10144;SDS011;5113;41.822;23.564;2023-04-24T18:20:25;22.63;;;15.67;;
10144;SDS011;5113;41.822;23.564;2023-04-24T18:23:31;18.80;;;13.23;;
10144;SDS011;5113;41.822;23.564;2023-04-24T18:26:40;8.77;;;7.63;;
10144;SDS011;5113;41.822;23.564;2023-04-24T18:29:46;8.40;;;7.27;;
10144;SDS011;5113;41.822;23.564;2023-04-24T18:32:53;10.93;;;8.93;;
10144;SDS011;5113;41.822;23.564;2023-04-24T18:35:59;10.97;;;9.50;;
10144;SDS011;5113;41.822;23.564;2023-04-24T18:39:06;11.47;;;8.77;;
10144;SDS011;5113;41.822;23.564;2023-04-24T18:42:14;13.50;;;9.83;;
10144;SDS011;5113;41.822;23.564;2023-04-24T18:45:20;11.77;;;8.80;;
10144;SDS011;5113;41.822;23.564;2023-04-24T18:48:27;10.47;;;8.03;;
10144;SDS011;5113;41.822;23.564;2023-04-24T18:51:34;10.47;;;8.97;;
10144;SDS011;5113;41.822;23.564;2023-04-24T18:54:56;20.60;;;12.07;;